createdAt,value
2018-10-01T00:00:05.637Z,16.78
2018-10-01T00:02:31.615Z,16.77
2018-10-01T00:04:57.585Z,16.61
2018-10-01T00:07:23.519Z,16.61
2018-10-01T00:09:49.459Z,16.67
2018-10-01T00:12:15.485Z,16.71
2018-10-01T00:14:41.422Z,16.75
2018-10-01T00:17:07.379Z,16.75
2018-10-01T00:19:33.329Z,16.75
2018-10-01T00:22:01.368Z,16.70
2018-10-01T00:24:27.317Z,16.66
2018-10-01T00:26:53.295Z,16.54
2018-10-01T00:29:19.262Z,16.60
2018-10-01T00:31:45.211Z,16.52
2018-10-01T00:34:11.195Z,16.46
2018-10-01T00:36:37.149Z,16.53
2018-10-01T00:39:03.108Z,16.51
2018-10-01T00:41:29.099Z,16.56
2018-10-01T00:43:55.072Z,16.65
2018-10-01T00:46:21.020Z,16.55
2018-10-01T00:48:46.971Z,16.57
2018-10-01T00:51:12.995Z,16.54
2018-10-01T00:53:38.961Z,16.40
2018-10-01T00:56:04.936Z,16.29
2018-10-01T00:58:30.911Z,16.36
2018-10-01T01:00:56.902Z,16.36
2018-10-01T01:03:22.876Z,16.34
2018-10-01T01:05:48.852Z,16.30
2018-10-01T01:08:14.811Z,16.30
2018-10-01T01:10:40.784Z,16.32
2018-10-01T01:13:06.751Z,16.40
2018-10-01T01:15:32.708Z,16.37
2018-10-01T01:17:58.672Z,16.30
2018-10-01T01:20:24.645Z,16.37
2018-10-01T01:22:50.619Z,16.34
2018-10-01T01:25:16.589Z,16.42
2018-10-01T01:27:42.537Z,16.47
2018-10-01T01:30:08.512Z,16.50
2018-10-01T01:32:34.469Z,16.47
2018-10-01T01:35:00.983Z,16.49
2018-10-01T01:37:27.003Z,16.50
2018-10-01T01:39:52.932Z,16.50
2018-10-01T01:42:18.873Z,16.49
2018-10-01T01:44:44.830Z,16.37
2018-10-01T01:47:10.758Z,16.38
2018-10-01T01:49:36.689Z,16.38
2018-10-01T01:52:02.629Z,16.26
2018-10-01T01:54:28.697Z,16.19
2018-10-01T01:56:54.652Z,16.25
2018-10-01T01:59:20.604Z,16.21
2018-10-01T02:01:46.556Z,16.07
2018-10-01T02:04:12.516Z,16.08
2018-10-01T02:06:38.470Z,16.07
2018-10-01T02:09:04.444Z,16.12
2018-10-01T02:11:30.409Z,16.03
2018-10-01T02:13:56.363Z,16.14
2018-10-01T02:16:22.338Z,16.01
2018-10-01T02:18:48.313Z,15.87
2018-10-01T02:21:14.250Z,15.80
2018-10-01T02:23:40.189Z,15.84
2018-10-01T02:26:06.120Z,15.83
2018-10-01T02:28:32.055Z,15.84
2018-10-01T02:30:58.161Z,15.82
2018-10-01T02:33:24.125Z,15.64
2018-10-01T02:35:50.062Z,15.55
2018-10-01T02:38:16.023Z,15.40
2018-10-01T02:40:41.995Z,15.39
2018-10-01T02:43:07.953Z,15.39
2018-10-01T02:45:33.917Z,15.46
2018-10-01T02:47:59.892Z,15.51
2018-10-01T02:50:25.855Z,15.59
2018-10-01T02:52:51.829Z,15.48
2018-10-01T02:55:17.769Z,15.21
2018-10-01T02:57:43.725Z,15.17
2018-10-01T03:00:09.679Z,15.35
2018-10-01T03:02:35.754Z,15.34
2018-10-01T03:05:01.737Z,15.27
2018-10-01T03:07:27.731Z,15.13
2018-10-01T03:09:53.686Z,15.07
2018-10-01T03:12:19.709Z,15.01
2018-10-01T03:14:45.624Z,15.06
2018-10-01T03:17:11.604Z,15.11
2018-10-01T03:19:37.556Z,15.06
2018-10-01T03:22:03.629Z,15.08
2018-10-01T03:24:29.697Z,15.09
2018-10-01T03:26:55.677Z,14.99
2018-10-01T03:29:21.634Z,15.10
2018-10-01T03:31:47.565Z,15.13
2018-10-01T03:34:13.503Z,15.20
2018-10-01T03:36:39.462Z,15.14
2018-10-01T03:39:05.433Z,15.18
2018-10-01T03:41:31.721Z,15.35
2018-10-01T03:43:57.698Z,15.19
2018-10-01T03:46:23.641Z,15.27
2018-10-01T03:48:49.609Z,15.23
2018-10-01T03:51:15.578Z,15.06
2018-10-01T03:53:41.558Z,15.06
2018-10-01T03:56:07.527Z,15.05
2018-10-01T03:58:33.495Z,15.03
2018-10-01T04:00:59.443Z,15.12
2018-10-01T04:03:25.392Z,15.12
2018-10-01T04:05:51.368Z,14.87
2018-10-01T04:08:17.318Z,14.78
2018-10-01T04:10:43.300Z,14.79
2018-10-01T04:13:09.259Z,14.97
2018-10-01T04:15:35.221Z,15.12
2018-10-01T04:18:01.187Z,15.27
2018-10-01T04:20:27.147Z,15.30
2018-10-01T04:22:53.116Z,15.25
2018-10-01T04:25:19.049Z,15.36
2018-10-01T04:27:45.011Z,15.49
2018-10-01T04:30:10.967Z,15.34
2018-10-01T04:32:36.950Z,15.36
2018-10-01T04:35:02.898Z,15.46
2018-10-01T04:37:28.937Z,15.60
2018-10-01T04:39:54.889Z,15.59
2018-10-01T04:42:20.859Z,15.62
2018-10-01T04:44:46.824Z,15.59
2018-10-01T04:47:12.778Z,15.70
2018-10-01T04:49:38.726Z,15.71
2018-10-01T04:52:04.674Z,15.72
2018-10-01T04:54:30.667Z,15.77
2018-10-01T04:56:56.693Z,15.71
2018-10-01T04:59:22.683Z,15.66
2018-10-01T05:01:48.629Z,15.62
2018-10-01T05:04:14.581Z,15.54
2018-10-01T05:06:40.535Z,15.68
2018-10-01T05:09:06.504Z,15.79
2018-10-01T05:11:32.447Z,15.74
2018-10-01T05:13:58.427Z,15.63
2018-10-01T05:16:24.392Z,15.64
2018-10-01T05:18:50.345Z,15.71
2018-10-01T05:21:16.335Z,15.70
2018-10-01T05:23:42.348Z,15.75
2018-10-01T05:26:08.303Z,15.81
2018-10-01T05:28:34.269Z,15.95
2018-10-01T05:31:00.244Z,16.14
2018-10-01T05:33:26.217Z,16.23
2018-10-01T05:35:52.174Z,16.35
2018-10-01T05:38:18.156Z,16.32
2018-10-01T05:40:44.083Z,16.13
2018-10-01T05:43:10.054Z,16.16
2018-10-01T05:45:36.005Z,16.31
2018-10-01T05:48:01.942Z,16.47
2018-10-01T05:50:27.910Z,16.53
2018-10-01T05:52:53.886Z,16.56
2018-10-01T05:55:19.896Z,16.70
2018-10-01T05:57:45.968Z,16.88
2018-10-01T06:00:11.843Z,17.04
2018-10-01T06:02:37.805Z,17.20
2018-10-01T06:05:03.787Z,17.22
2018-10-01T06:07:29.756Z,17.29
2018-10-01T06:09:55.724Z,17.22
2018-10-01T06:12:21.681Z,17.20
2018-10-01T06:14:47.647Z,17.29
2018-10-01T06:17:13.623Z,17.27
2018-10-01T06:19:39.617Z,17.33
2018-10-01T06:22:05.572Z,17.43
2018-10-01T06:24:31.532Z,17.42
2018-10-01T06:26:57.499Z,17.47
2018-10-01T06:29:23.457Z,17.53
2018-10-01T06:31:49.408Z,17.63
2018-10-01T06:34:15.373Z,17.60
2018-10-01T06:36:41.348Z,17.34
2018-10-01T06:39:07.316Z,17.23
2018-10-01T06:41:33.280Z,17.20
2018-10-01T06:43:59.236Z,17.13
2018-10-01T06:46:25.185Z,17.23
2018-10-01T06:48:51.153Z,17.18
2018-10-01T06:51:17.161Z,17.17
2018-10-01T06:53:43.072Z,17.30
2018-10-01T06:56:09.032Z,17.42
2018-10-01T06:58:35.017Z,17.55
2018-10-01T07:01:00.987Z,17.67
2018-10-01T07:03:26.937Z,17.82
2018-10-01T07:05:53.027Z,17.81
2018-10-01T07:08:18.894Z,17.95
2018-10-01T07:10:44.861Z,18.09
2018-10-01T07:13:10.825Z,18.18
2018-10-01T07:15:36.753Z,18.33
2018-10-01T07:18:02.696Z,18.45
2018-10-01T07:20:28.646Z,18.54
2018-10-01T07:22:54.671Z,18.62
2018-10-01T07:25:20.677Z,18.69
2018-10-01T07:27:46.619Z,18.80
2018-10-01T07:30:12.577Z,18.92
2018-10-01T07:32:38.509Z,18.97
2018-10-01T07:35:04.490Z,19.00
2018-10-01T07:37:30.458Z,19.01
2018-10-01T07:39:56.418Z,19.11
2018-10-01T07:42:22.396Z,19.20
2018-10-01T07:44:48.396Z,19.20
2018-10-01T07:47:14.338Z,19.28
2018-10-01T07:49:40.303Z,19.43
2018-10-01T07:52:06.252Z,19.48
2018-10-01T07:54:32.209Z,19.50
2018-10-01T07:56:58.171Z,19.54
2018-10-01T07:59:24.159Z,19.72
2018-10-01T08:01:50.153Z,19.85
2018-10-01T08:04:16.092Z,20.06
2018-10-01T08:06:42.046Z,20.28
2018-10-01T08:09:08.142Z,20.41
2018-10-01T08:11:34.156Z,20.57
2018-10-01T08:14:00.176Z,20.63
2018-10-01T08:16:26.114Z,20.57
2018-10-01T08:18:52.063Z,20.56
2018-10-01T08:21:18.123Z,20.61
2018-10-01T08:23:44.184Z,20.61
2018-10-01T08:26:10.124Z,20.44
2018-10-01T08:28:36.120Z,20.52
2018-10-01T08:31:02.090Z,20.63
2018-10-01T08:33:28.029Z,20.70
2018-10-01T08:35:54.012Z,20.75
2018-10-01T08:38:20.083Z,20.83
2018-10-01T08:40:45.946Z,20.80
2018-10-01T08:43:11.876Z,20.82
2018-10-01T08:45:37.809Z,20.84
2018-10-01T08:48:03.770Z,20.79
2018-10-01T08:50:29.782Z,20.74
2018-10-01T08:52:55.773Z,20.77
2018-10-01T08:55:21.761Z,20.85
2018-10-01T08:57:47.708Z,20.65
2018-10-01T09:00:13.655Z,20.64
2018-10-01T09:02:39.664Z,20.82
2018-10-01T09:05:05.612Z,20.91
2018-10-01T09:07:31.525Z,20.98
2018-10-01T09:09:57.501Z,20.98
2018-10-01T09:12:23.470Z,20.81
2018-10-01T09:14:49.470Z,20.78
2018-10-01T09:17:15.434Z,20.91
2018-10-01T09:19:41.377Z,20.85
2018-10-01T09:22:07.363Z,20.95
2018-10-01T09:24:33.298Z,20.62
2018-10-01T09:26:59.260Z,20.84
2018-10-01T09:29:25.203Z,21.06
2018-10-01T09:31:51.175Z,21.19
2018-10-01T09:34:17.131Z,21.25
2018-10-01T09:36:43.073Z,21.31
2018-10-01T09:39:09.038Z,21.10
2018-10-01T09:41:35.011Z,21.23
2018-10-01T09:44:00.994Z,21.23
2018-10-01T09:46:26.938Z,21.30
2018-10-01T09:48:52.878Z,21.29
2018-10-01T09:51:18.838Z,21.38
2018-10-01T09:53:44.809Z,21.37
2018-10-01T09:56:10.875Z,21.20
2018-10-01T09:58:36.849Z,21.15
2018-10-01T10:01:02.849Z,21.25
2018-10-01T10:03:28.828Z,21.14
2018-10-01T10:05:54.800Z,21.12
2018-10-01T10:08:20.734Z,21.08
2018-10-01T10:10:46.750Z,21.01
2018-10-01T10:13:12.742Z,21.12
2018-10-01T10:15:38.752Z,21.19
2018-10-01T10:18:04.736Z,21.29
2018-10-01T10:20:30.850Z,21.26
2018-10-01T10:22:56.721Z,21.17
2018-10-01T10:25:22.657Z,21.06
2018-10-01T10:27:48.615Z,21.06
2018-10-01T10:30:14.589Z,21.02
2018-10-01T10:32:40.529Z,21.24
2018-10-01T10:35:06.493Z,21.32
2018-10-01T10:37:32.441Z,21.37
2018-10-01T10:39:58.378Z,21.17
2018-10-01T10:42:24.327Z,21.22
2018-10-01T10:44:50.293Z,21.07
2018-10-01T10:47:16.243Z,21.14
2018-10-01T10:49:42.201Z,21.16
2018-10-01T10:52:08.157Z,21.35
2018-10-01T10:54:34.132Z,21.38
2018-10-01T10:57:00.108Z,21.31
2018-10-01T10:59:26.092Z,21.16
2018-10-01T11:01:52.053Z,21.38
2018-10-01T11:04:18.002Z,21.45
2018-10-01T11:06:43.977Z,21.32
2018-10-01T11:09:09.935Z,21.51
2018-10-01T11:11:35.912Z,21.35
2018-10-01T11:14:02.040Z,21.53
2018-10-01T11:16:27.873Z,21.55
2018-10-01T11:18:54.020Z,21.38
2018-10-01T11:21:19.867Z,21.48
2018-10-01T11:23:45.903Z,21.32
2018-10-01T11:26:11.888Z,21.37
2018-10-01T11:28:37.928Z,21.33
2018-10-01T11:31:03.912Z,21.40
2018-10-01T11:33:29.924Z,21.50
2018-10-01T11:35:55.845Z,21.44
2018-10-01T11:38:21.822Z,21.48
2018-10-01T11:40:47.803Z,21.46
2018-10-01T11:43:13.772Z,21.33
2018-10-01T11:45:39.788Z,21.46
2018-10-01T11:48:05.765Z,21.39
2018-10-01T11:50:31.745Z,21.42
2018-10-01T11:52:57.701Z,21.53
2018-10-01T11:55:23.640Z,21.55
2018-10-01T11:57:49.672Z,21.56
2018-10-01T12:00:15.574Z,21.38
2018-10-01T12:02:41.526Z,21.34
2018-10-01T12:05:07.500Z,21.14
2018-10-01T12:07:33.467Z,21.26
2018-10-01T12:09:59.447Z,21.39
2018-10-01T12:12:25.377Z,21.11
2018-10-01T12:14:51.328Z,21.45
2018-10-01T12:17:17.296Z,21.62
2018-10-01T12:19:43.595Z,21.47
2018-10-01T12:22:09.607Z,21.50
2018-10-01T12:24:35.614Z,21.30
2018-10-01T12:27:01.598Z,21.29
2018-10-01T12:29:27.594Z,21.22
2018-10-01T12:31:53.548Z,21.18
2018-10-01T12:34:19.572Z,21.48
2018-10-01T12:36:45.535Z,21.49
2018-10-01T12:39:11.534Z,21.35
2018-10-01T12:41:37.451Z,21.28
2018-10-01T12:44:03.407Z,21.17
2018-10-01T12:46:29.353Z,21.04
2018-10-01T12:48:55.298Z,21.31
2018-10-01T12:51:21.325Z,21.55
2018-10-01T12:53:47.237Z,21.37
2018-10-01T12:56:13.200Z,21.24
2018-10-01T12:58:39.158Z,21.06
2018-10-01T13:01:05.243Z,21.07
2018-10-01T13:03:31.181Z,21.44
2018-10-01T13:05:57.143Z,21.68
2018-10-01T13:08:23.115Z,21.12
2018-10-01T13:10:49.068Z,21.00
2018-10-01T13:13:15.015Z,20.87
2018-10-01T13:15:40.953Z,21.19
2018-10-01T13:18:06.957Z,21.43
2018-10-01T13:20:32.895Z,21.59
2018-10-01T13:22:58.870Z,21.78
2018-10-01T13:25:24.806Z,21.87
2018-10-01T13:27:50.765Z,21.68
2018-10-01T13:30:16.833Z,21.55
2018-10-01T13:32:42.706Z,21.65
2018-10-01T13:35:08.663Z,21.63
2018-10-01T13:37:34.623Z,21.69
2018-10-01T13:40:00.580Z,21.22
2018-10-01T13:42:26.521Z,21.16
2018-10-01T13:44:52.790Z,20.96
2018-10-01T13:47:18.764Z,20.86
2018-10-01T13:49:44.738Z,20.96
2018-10-01T13:52:10.746Z,20.97
2018-10-01T13:54:36.808Z,20.88
2018-10-01T13:57:02.743Z,20.57
2018-10-01T13:59:28.739Z,20.58
2018-10-01T14:01:54.700Z,20.83
2018-10-01T14:04:20.688Z,20.93
2018-10-01T14:06:46.654Z,21.13
2018-10-01T14:09:12.641Z,21.13
2018-10-01T14:11:38.606Z,20.88
2018-10-01T14:14:04.564Z,20.95
2018-10-01T14:16:30.569Z,20.98
2018-10-01T14:18:56.604Z,21.03
2018-10-01T14:21:22.726Z,21.03
2018-10-01T14:23:48.708Z,20.86
2018-10-01T14:26:14.695Z,20.83
2018-10-01T14:28:40.654Z,20.85
2018-10-01T14:31:06.628Z,20.76
2018-10-01T14:33:32.611Z,20.98
2018-10-01T14:35:58.685Z,21.05
2018-10-01T14:38:25.202Z,21.13
2018-10-01T14:40:51.247Z,21.09
2018-10-01T14:43:17.209Z,21.00
2018-10-01T14:45:43.259Z,20.96
2018-10-01T14:48:09.333Z,21.12
2018-10-01T14:50:36.009Z,20.96
2018-10-01T14:53:01.992Z,21.09
2018-10-01T14:55:27.977Z,20.85
2018-10-01T14:57:53.950Z,20.74
2018-10-01T15:00:20.026Z,20.77
2018-10-01T15:02:45.931Z,20.69
2018-10-01T15:05:11.901Z,20.62
2018-10-01T15:07:37.841Z,20.52
2018-10-01T15:10:03.812Z,20.38
2018-10-01T15:12:29.783Z,20.65
2018-10-01T15:14:55.776Z,20.70
2018-10-01T15:17:21.751Z,20.77
2018-10-01T15:19:47.745Z,20.51
2018-10-01T15:22:13.763Z,20.35
2018-10-01T15:24:39.758Z,20.32
2018-10-01T15:27:05.821Z,20.34
2018-10-01T15:29:31.797Z,20.40
2018-10-01T15:31:57.799Z,20.30
2018-10-01T15:34:23.823Z,20.28
2018-10-01T15:36:49.778Z,20.26
2018-10-01T15:39:15.880Z,20.28
2018-10-01T15:41:41.904Z,20.30
2018-10-01T15:44:07.893Z,20.30
2018-10-01T15:46:33.993Z,20.28
2018-10-01T15:48:59.953Z,20.26
2018-10-01T15:51:25.947Z,20.31
2018-10-01T15:53:51.917Z,20.22
2018-10-01T15:56:17.895Z,20.16
2018-10-01T15:58:43.857Z,20.17
2018-10-01T16:01:09.838Z,20.20
2018-10-01T16:03:35.777Z,20.23
2018-10-01T16:06:01.743Z,20.20
2018-10-01T16:08:27.888Z,20.23
2018-10-01T16:10:53.874Z,20.22
2018-10-01T16:13:19.840Z,20.21
2018-10-01T16:15:45.777Z,20.14
2018-10-01T16:18:11.817Z,20.11
2018-10-01T16:20:37.692Z,20.02
2018-10-01T16:23:03.679Z,20.05
2018-10-01T16:25:29.632Z,20.07
2018-10-01T16:27:55.567Z,20.12
2018-10-01T16:30:21.588Z,20.12
2018-10-01T16:32:47.542Z,20.04
2018-10-01T16:35:13.542Z,20.11
2018-10-01T16:37:39.488Z,20.19
2018-10-01T16:40:05.726Z,20.14
2018-10-01T16:42:31.703Z,20.18
2018-10-01T16:44:57.691Z,20.17
2018-10-01T16:47:23.677Z,20.16
2018-10-01T16:49:49.647Z,20.13
2018-10-01T16:52:15.753Z,20.11
2018-10-01T16:54:41.682Z,20.10
2018-10-01T16:57:07.714Z,20.07
2018-10-01T16:59:33.657Z,20.07
2018-10-01T17:01:59.605Z,20.03
2018-10-01T17:04:25.583Z,20.00
2018-10-01T17:06:51.612Z,19.96
2018-10-01T17:09:17.583Z,20.00
2018-10-01T17:11:43.534Z,19.97
2018-10-01T17:14:09.513Z,19.92
2018-10-01T17:16:35.497Z,19.86
2018-10-01T17:19:01.481Z,19.91
2018-10-01T17:21:27.455Z,19.87
2018-10-01T17:23:53.422Z,19.90
2018-10-01T17:26:19.387Z,19.93
2018-10-01T17:28:45.367Z,19.87
2018-10-01T17:31:11.333Z,19.88
2018-10-01T17:33:37.301Z,19.85
2018-10-01T17:36:03.315Z,19.85
2018-10-01T17:38:29.347Z,19.87
2018-10-01T17:40:55.304Z,19.88
2018-10-01T17:43:21.284Z,19.87
2018-10-01T17:45:47.392Z,19.87
2018-10-01T17:48:13.378Z,19.87
2018-10-01T17:50:39.401Z,19.76
2018-10-01T17:53:05.379Z,19.79
2018-10-01T17:55:31.500Z,19.73
2018-10-01T17:57:57.466Z,19.82
2018-10-01T18:00:23.512Z,19.86
2018-10-01T18:02:49.437Z,19.93
2018-10-01T18:05:15.389Z,19.84
2018-10-01T18:07:41.380Z,19.76
2018-10-01T18:10:07.336Z,19.78
2018-10-01T18:12:33.317Z,19.69
2018-10-01T18:14:59.288Z,19.80
2018-10-01T18:17:25.302Z,19.86
2018-10-01T18:19:51.271Z,19.89
2018-10-01T18:22:17.233Z,19.87
2018-10-01T18:24:43.211Z,19.84
2018-10-01T18:27:09.166Z,19.81
2018-10-01T18:29:35.109Z,19.87
2018-10-01T18:32:01.076Z,19.81
2018-10-01T18:34:27.017Z,19.83
2018-10-01T18:36:52.981Z,19.80
2018-10-01T18:39:19.012Z,19.81
2018-10-01T18:41:45.068Z,19.79
2018-10-01T18:44:11.169Z,19.76
2018-10-01T18:46:39.221Z,19.79
2018-10-01T18:49:05.171Z,19.69
2018-10-01T18:51:31.123Z,19.62
2018-10-01T18:53:57.155Z,19.69
2018-10-01T18:56:23.043Z,19.65
2018-10-01T18:58:48.986Z,19.69
2018-10-01T19:01:14.966Z,19.59
2018-10-01T19:03:40.936Z,19.51
2018-10-01T19:06:06.959Z,19.60
2018-10-01T19:08:32.897Z,19.67
2018-10-01T19:10:58.884Z,19.72
2018-10-01T19:13:24.862Z,19.73
2018-10-01T19:15:50.850Z,19.55
2018-10-01T19:18:16.922Z,19.56
2018-10-01T19:20:42.845Z,19.51
2018-10-01T19:23:08.815Z,19.52
2018-10-01T19:25:34.772Z,19.63
2018-10-01T19:28:00.817Z,19.47
2018-10-01T19:30:26.815Z,19.47
2018-10-01T19:32:52.719Z,19.46
2018-10-01T19:35:18.738Z,19.23
2018-10-01T19:37:44.674Z,19.24
2018-10-01T19:40:10.636Z,19.44
2018-10-01T19:42:36.659Z,19.43
2018-10-01T19:45:02.676Z,19.24
2018-10-01T19:47:28.642Z,19.27
2018-10-01T19:49:54.573Z,19.27
2018-10-01T19:52:20.595Z,19.33
2018-10-01T19:54:46.591Z,19.38
2018-10-01T19:57:12.689Z,19.29
2018-10-01T19:59:38.547Z,18.90
2018-10-01T20:02:04.597Z,19.12
2018-10-01T20:04:30.605Z,19.25
2018-10-01T20:06:56.585Z,19.19
2018-10-01T20:09:22.646Z,19.15
2018-10-01T20:11:48.577Z,19.20
2018-10-01T20:14:14.539Z,19.25
2018-10-01T20:16:40.529Z,19.27
2018-10-01T20:19:06.510Z,19.29
2018-10-01T20:21:32.470Z,19.39
2018-10-01T20:23:58.472Z,19.16
2018-10-01T20:26:24.468Z,19.17
2018-10-01T20:28:50.690Z,19.36
2018-10-01T20:31:16.388Z,19.37
2018-10-01T20:33:42.400Z,19.44
2018-10-01T20:36:08.465Z,19.39
2018-10-01T20:38:34.349Z,19.38
2018-10-01T20:41:00.472Z,19.33
2018-10-01T20:43:26.284Z,19.26
2018-10-01T20:45:52.314Z,19.20
2018-10-01T20:48:18.293Z,19.16
2018-10-01T20:50:44.238Z,19.26
2018-10-01T20:53:10.328Z,19.19
2018-10-01T20:55:36.241Z,19.15
2018-10-01T20:58:02.266Z,18.93
2018-10-01T21:00:28.263Z,18.94
2018-10-01T21:02:54.252Z,19.11
2018-10-01T21:05:20.201Z,19.21
2018-10-01T21:07:46.185Z,19.18
2018-10-01T21:10:12.173Z,19.20
2018-10-01T21:12:38.119Z,19.24
2018-10-01T21:15:04.094Z,19.06
2018-10-01T21:17:30.228Z,18.97
2018-10-01T21:19:56.210Z,19.14
2018-10-01T21:22:22.243Z,19.18
2018-10-01T21:27:20.576Z,19.09
2018-10-01T21:29:46.525Z,19.14
2018-10-01T21:32:12.505Z,19.15
2018-10-01T21:34:38.492Z,19.09
2018-10-01T21:37:04.434Z,18.80
2018-10-01T21:39:30.402Z,18.95
2018-10-01T21:41:56.381Z,18.93
2018-10-01T21:44:22.361Z,19.07
2018-10-01T21:46:48.350Z,19.00
2018-10-01T21:49:14.322Z,18.93
2018-10-01T21:51:40.271Z,19.03
2018-10-01T21:54:06.267Z,19.01
2018-10-01T21:56:32.234Z,19.05
2018-10-01T21:58:58.192Z,19.07
2018-10-01T22:01:24.127Z,18.90
2018-10-01T22:03:50.062Z,18.60
2018-10-01T22:06:16.009Z,18.82
2018-10-01T22:08:41.965Z,18.92
2018-10-01T22:11:07.900Z,18.98
2018-10-01T22:13:33.825Z,18.73
2018-10-01T22:15:59.776Z,18.77
2018-10-01T22:18:25.727Z,18.74
2018-10-01T22:20:51.661Z,18.74
2018-10-01T22:23:17.599Z,18.58
2018-10-01T22:25:43.549Z,18.69
2018-10-01T22:28:09.488Z,18.83
2018-10-01T22:30:35.449Z,18.84
2018-10-01T22:33:01.458Z,18.67
2018-10-01T22:35:27.431Z,18.58
2018-10-01T22:37:53.378Z,18.64
2018-10-01T22:40:19.332Z,18.54
2018-10-01T22:42:45.292Z,18.75
2018-10-01T22:45:11.261Z,18.64
2018-10-01T22:47:37.225Z,18.17
2018-10-01T22:50:03.189Z,18.41
2018-10-01T22:52:29.145Z,18.60
2018-10-01T22:54:55.129Z,18.57
2018-10-01T22:57:21.096Z,18.69
2018-10-01T22:59:47.022Z,18.65
2018-10-01T23:02:12.957Z,18.68
2018-10-01T23:04:38.889Z,18.58
2018-10-01T23:07:04.826Z,18.68
2018-10-01T23:09:30.760Z,18.70
2018-10-01T23:11:56.685Z,18.54
2018-10-01T23:14:22.615Z,18.43
2018-10-01T23:16:48.542Z,18.41
2018-10-01T23:19:14.474Z,18.56
2018-10-01T23:21:40.434Z,18.60
2018-10-01T23:24:06.392Z,18.43
2018-10-01T23:26:32.314Z,18.50
2018-10-01T23:28:58.263Z,18.27
2018-10-01T23:31:24.197Z,18.41
2018-10-01T23:33:50.117Z,18.46
2018-10-01T23:36:16.052Z,18.44
2018-10-01T23:38:41.980Z,18.35
2018-10-01T23:41:07.952Z,18.28
2018-10-01T23:43:33.898Z,18.15
2018-10-01T23:45:59.830Z,18.10
2018-10-01T23:48:25.779Z,18.22
2018-10-01T23:50:51.746Z,18.22
2018-10-01T23:53:17.681Z,18.10
2018-10-01T23:55:43.657Z,18.27
2018-10-01T23:58:09.608Z,18.40
